Terminal Aerodrome Forecast
Issued by NWS Denver/Boulder, CO

Home | Current Version | Previous Version | Text Only | Print | Product List | Glossary On
Versions: 1 2 3 4 5 6 7 8 9 10 11 12 13 14 15 16 17 18 19 20 21 22 23 24 25 26 27 28 29 30 31 32 33 34 35 36 37 38 39 40 41 42 43 44 45 46 47 48 49 50
000
FTUS45 KBOU 232013 AAA
TAFDEN
TAF AMD
KDEN 232013Z 2320/2424 18007KT P6SM FEW090 SCT120
     FM232200 05006KT P6SM FEW080 SCT120
     FM240300 25008KT P6SM SCT060 BKN120
     FM241100 32012KT P6SM SCT040 BKN080
     FM241500 35014G22KT P6SM SCT040 BKN080 PROB30 2418/2421 3SM
      -SHSN BKN040=

USA.gov is the U.S. government's official web portal to all federal, state and local government web resources and services.